createdAt,value
2018-08-28T00:00:44.392Z,18.60
2018-08-28T00:03:12.965Z,18.70
2018-08-28T00:05:42.460Z,18.60
2018-08-28T00:08:11.084Z,18.60
2018-08-28T00:10:39.689Z,18.60
2018-08-28T00:13:08.313Z,18.60
2018-08-28T00:15:38.033Z,18.60
2018-08-28T00:18:06.988Z,18.60
2018-08-28T00:20:35.557Z,18.60
2018-08-28T00:23:05.015Z,18.60
2018-08-28T00:25:33.750Z,18.50
2018-08-28T00:28:02.492Z,18.40
2018-08-28T00:30:31.132Z,18.40
2018-08-28T00:32:59.820Z,18.40
2018-08-28T00:35:28.852Z,18.40
2018-08-28T00:37:57.456Z,18.40
2018-08-28T00:40:26.247Z,18.40
2018-08-28T00:42:56.104Z,18.30
2018-08-28T00:45:24.657Z,18.30
2018-08-28T00:47:53.282Z,18.30
2018-08-28T00:50:23.229Z,18.30
2018-08-28T00:52:51.881Z,18.30
2018-08-28T00:55:20.941Z,18.30
2018-08-28T00:57:49.478Z,18.30
2018-08-28T01:00:18.240Z,18.20
2018-08-28T01:02:46.956Z,18.10
2018-08-28T01:05:15.732Z,18.00
2018-08-28T01:07:44.354Z,17.90
2018-08-28T01:10:13.006Z,17.80
2018-08-28T01:12:41.619Z,17.70
2018-08-28T01:15:10.187Z,17.60
2018-08-28T01:17:38.807Z,17.60
2018-08-28T01:20:07.681Z,17.50
2018-08-28T01:22:36.313Z,17.30
2018-08-28T01:25:05.161Z,17.20
2018-08-28T01:27:33.722Z,17.10
2018-08-28T01:30:02.296Z,17.10
2018-08-28T01:32:30.907Z,17.00
2018-08-28T01:35:01.457Z,16.90
2018-08-28T01:37:31.873Z,16.90
2018-08-28T01:40:00.466Z,16.80
2018-08-28T01:42:29.024Z,16.70
2018-08-28T01:44:58.250Z,16.70
2018-08-28T01:47:26.778Z,16.50
2018-08-28T01:49:55.334Z,16.50
2018-08-28T01:52:23.935Z,16.40
2018-08-28T01:54:52.462Z,16.30
2018-08-28T01:57:20.990Z,16.20
2018-08-28T01:59:49.620Z,16.20
2018-08-28T02:02:18.182Z,16.20
2018-08-28T02:04:46.702Z,16.10
2018-08-28T02:07:15.374Z,16.10
2018-08-28T02:09:43.912Z,16.00
2018-08-28T02:12:12.499Z,16.00
2018-08-28T02:14:41.038Z,16.00
2018-08-28T02:17:10.275Z,15.90
2018-08-28T02:19:39.230Z,15.90
2018-08-28T02:22:07.795Z,15.80
2018-08-28T02:24:36.356Z,15.80
2018-08-28T02:27:05.697Z,15.70
2018-08-28T02:29:34.230Z,15.70
2018-08-28T02:32:03.492Z,15.70
2018-08-28T02:34:33.078Z,15.60
2018-08-28T02:37:01.675Z,15.50
2018-08-28T02:39:30.453Z,15.50
2018-08-28T02:42:01.571Z,15.50
2018-08-28T02:44:30.122Z,15.40
2018-08-28T02:46:59.340Z,15.40
2018-08-28T02:49:27.931Z,15.40
2018-08-28T02:51:56.477Z,15.40
2018-08-28T02:54:25.274Z,15.30
2018-08-28T02:56:53.825Z,15.30
2018-08-28T02:59:22.347Z,15.30
2018-08-28T03:01:50.911Z,15.20
2018-08-28T03:04:19.407Z,15.10
2018-08-28T03:06:47.971Z,15.10
2018-08-28T03:09:16.512Z,15.00
2018-08-28T03:11:45.031Z,15.00
2018-08-28T03:14:13.588Z,15.00
2018-08-28T03:16:42.697Z,15.10
2018-08-28T03:19:11.351Z,15.10
2018-08-28T03:21:39.933Z,15.10
2018-08-28T03:24:09.071Z,15.10
2018-08-28T03:26:37.630Z,15.20
2018-08-28T03:29:06.188Z,15.20
2018-08-28T03:31:34.715Z,15.10
2018-08-28T03:34:03.460Z,15.20
2018-08-28T03:36:32.470Z,15.20
2018-08-28T03:39:01.240Z,15.20
2018-08-28T03:41:29.808Z,15.10
2018-08-28T03:43:58.454Z,15.10
2018-08-28T03:46:26.980Z,15.10
2018-08-28T03:48:56.594Z,15.00
2018-08-28T03:51:25.122Z,15.00
2018-08-28T03:53:53.729Z,14.90
2018-08-28T03:56:22.247Z,14.90
2018-08-28T03:58:50.729Z,14.90
2018-08-28T04:01:19.328Z,14.90
2018-08-28T04:03:48.011Z,14.90
2018-08-28T04:06:16.546Z,14.70
2018-08-28T04:08:45.394Z,14.70
2018-08-28T04:11:13.941Z,14.60
2018-08-28T04:13:42.466Z,14.60
2018-08-28T04:16:10.995Z,14.60
2018-08-28T04:18:39.518Z,14.50
2018-08-28T04:21:08.086Z,14.50
2018-08-28T04:23:36.604Z,14.40
2018-08-28T04:26:05.268Z,14.40
2018-08-28T04:28:33.830Z,14.30
2018-08-28T04:31:02.614Z,14.30
2018-08-28T04:36:30.041Z,14.20
2018-08-28T04:38:59.067Z,14.30
2018-08-28T04:41:27.591Z,14.20
2018-08-28T04:43:56.154Z,14.20
2018-08-28T04:46:25.553Z,14.20
2018-08-28T04:48:54.399Z,14.20
2018-08-28T04:51:22.986Z,14.20
2018-08-28T04:53:51.526Z,14.20
2018-08-28T04:56:20.065Z,14.20
2018-08-28T04:58:48.610Z,14.20
2018-08-28T05:01:17.166Z,14.20
2018-08-28T05:03:45.756Z,14.20
2018-08-28T05:06:15.009Z,14.30
2018-08-28T05:08:44.570Z,14.30
2018-08-28T05:11:13.108Z,14.40
2018-08-28T05:13:41.622Z,14.50
2018-08-28T05:16:10.408Z,14.40
2018-08-28T05:18:38.955Z,14.40
2018-08-28T05:21:07.525Z,14.40
2018-08-28T05:23:36.114Z,14.50
2018-08-28T05:26:05.289Z,14.50
2018-08-28T05:28:33.906Z,14.50
2018-08-28T05:31:02.482Z,14.60
2018-08-28T05:33:31.018Z,14.60
2018-08-28T05:35:59.562Z,14.60
2018-08-28T05:38:28.115Z,14.80
2018-08-28T05:40:56.701Z,15.20
2018-08-28T05:43:25.254Z,15.50
2018-08-28T05:45:53.829Z,16.00
2018-08-28T05:48:22.407Z,16.20
2018-08-28T05:50:51.265Z,16.40
2018-08-28T05:53:19.850Z,16.70
2018-08-28T05:55:48.444Z,17.00
2018-08-28T05:58:16.974Z,17.30
2018-08-28T06:00:46.396Z,17.50
2018-08-28T06:03:15.062Z,17.70
2018-08-28T06:05:43.870Z,17.80
2018-08-28T06:08:12.473Z,17.90
2018-08-28T06:10:41.201Z,18.30
2018-08-28T06:13:09.974Z,18.60
2018-08-28T06:15:38.800Z,18.60
2018-08-28T06:18:07.378Z,18.40
2018-08-28T06:20:35.985Z,18.20
2018-08-28T06:23:04.621Z,17.90
2018-08-28T06:25:33.126Z,17.80
2018-08-28T06:28:01.693Z,17.80
2018-08-28T06:30:31.411Z,17.90
2018-08-28T06:32:59.943Z,17.90
2018-08-28T06:35:28.520Z,18.00
2018-08-28T06:37:57.086Z,18.10
2018-08-28T06:40:26.224Z,18.80
2018-08-28T06:43:57.658Z,19.80
2018-08-28T06:46:26.282Z,21.00
2018-08-28T06:48:55.166Z,22.70
2018-08-28T06:51:23.656Z,23.60
2018-08-28T06:53:52.231Z,24.10
2018-08-28T06:56:20.757Z,24.20
2018-08-28T06:58:49.929Z,24.10
2018-08-28T07:01:18.445Z,24.20
2018-08-28T07:03:47.071Z,24.50
2018-08-28T07:06:15.562Z,25.20
2018-08-28T07:08:44.086Z,26.30
2018-08-28T07:11:12.654Z,27.50
2018-08-28T07:13:41.213Z,28.50
2018-08-28T07:16:09.793Z,29.00
2018-08-28T07:18:38.415Z,29.60
2018-08-28T07:21:06.925Z,29.70
2018-08-28T07:23:35.490Z,29.70
2018-08-28T07:26:04.210Z,30.10
2018-08-28T07:28:32.683Z,31.00
2018-08-28T07:31:01.325Z,31.70
2018-08-28T07:33:29.868Z,32.50
2018-08-28T07:35:58.416Z,32.60
2018-08-28T07:38:26.954Z,32.90
2018-08-28T07:40:56.414Z,32.80
2018-08-28T07:43:25.116Z,32.50
2018-08-28T07:45:53.661Z,31.40
2018-08-28T07:48:22.335Z,29.90
2018-08-28T07:50:52.054Z,28.80
2018-08-28T07:53:20.642Z,28.70
2018-08-28T07:55:49.199Z,30.60
2018-08-28T07:58:18.439Z,31.60
2018-08-28T08:00:47.649Z,33.70
2018-08-28T08:03:20.481Z,35.90
2018-08-28T08:05:49.066Z,36.10
2018-08-28T08:08:17.602Z,36.10
2018-08-28T08:10:46.560Z,37.60
2018-08-28T08:13:15.127Z,38.90
2018-08-28T08:15:43.780Z,39.90
2018-08-28T08:18:12.282Z,40.10
2018-08-28T08:20:41.128Z,39.70
2018-08-28T08:23:09.798Z,39.70
2018-08-28T08:25:39.490Z,39.10
2018-08-28T08:28:08.257Z,37.80
2018-08-28T08:30:36.879Z,37.70
2018-08-28T08:33:16.176Z,37.70
2018-08-28T08:35:44.777Z,38.20
2018-08-28T08:38:13.380Z,38.70
2018-08-28T08:40:42.578Z,40.30
2018-08-28T08:43:11.154Z,41.30
2018-08-28T08:45:39.713Z,42.00
2018-08-28T08:48:08.324Z,42.70
2018-08-28T08:50:37.116Z,43.00
2018-08-28T08:53:05.688Z,42.40
2018-08-28T08:55:34.242Z,42.10
2018-08-28T08:58:02.811Z,41.70
2018-08-28T09:00:31.356Z,39.50
2018-08-28T09:02:59.902Z,39.20
2018-08-28T09:05:28.473Z,40.10
2018-08-28T09:07:57.049Z,40.40
2018-08-28T09:10:25.682Z,41.00
2018-08-28T09:12:54.294Z,41.40
2018-08-28T09:15:22.951Z,41.90
2018-08-28T09:17:51.447Z,43.00
2018-08-28T09:20:20.000Z,44.00
2018-08-28T09:22:48.595Z,44.40
2018-08-28T09:25:17.214Z,45.00
2018-08-28T09:27:45.744Z,45.00
2018-08-28T09:30:14.338Z,44.00
2018-08-28T09:32:42.951Z,43.50
2018-08-28T09:35:11.559Z,44.30
2018-08-28T09:37:40.139Z,44.90
2018-08-28T09:40:08.714Z,45.80
2018-08-28T09:42:38.263Z,46.40
2018-08-28T09:45:06.889Z,46.30
2018-08-28T09:47:35.482Z,46.50
2018-08-28T09:50:04.565Z,45.30
2018-08-28T09:52:33.104Z,45.50
2018-08-28T09:55:01.636Z,46.10
2018-08-28T09:57:30.206Z,45.40
2018-08-28T09:59:58.723Z,45.20
2018-08-28T10:02:28.122Z,45.70
2018-08-28T10:04:56.776Z,45.80
2018-08-28T10:07:25.220Z,44.10
2018-08-28T10:09:54.909Z,42.20
2018-08-28T10:12:23.510Z,41.70
2018-08-28T10:14:52.234Z,43.40
2018-08-28T10:17:20.855Z,44.10
2018-08-28T10:19:51.211Z,44.40
2018-08-28T10:22:19.843Z,44.80
2018-08-28T10:24:48.470Z,44.90
2018-08-28T10:27:17.628Z,44.90
2018-08-28T10:29:47.004Z,44.00
2018-08-28T10:32:16.507Z,43.30
2018-08-28T10:34:45.186Z,43.70
2018-08-28T10:37:13.785Z,44.60
2018-08-28T10:39:42.358Z,44.70
2018-08-28T10:42:10.863Z,43.80
2018-08-28T10:44:39.432Z,44.00
2018-08-28T10:47:08.035Z,44.30
2018-08-28T10:49:36.822Z,44.50
2018-08-28T10:52:05.483Z,44.10
2018-08-28T10:54:34.191Z,43.30
2018-08-28T10:57:09.524Z,42.10
2018-08-28T10:59:44.846Z,41.70
2018-08-28T11:02:20.271Z,41.10
2018-08-28T11:04:54.081Z,40.60
2018-08-28T11:07:26.574Z,39.60
2018-08-28T11:09:55.146Z,40.10
2018-08-28T11:12:23.626Z,40.60
2018-08-28T11:14:52.207Z,39.60
2018-08-28T11:17:20.714Z,38.00
2018-08-28T11:19:49.261Z,38.30
2018-08-28T11:22:17.862Z,37.90
2018-08-28T11:24:46.459Z,36.80
2018-08-28T11:27:15.141Z,35.50
2018-08-28T11:29:46.884Z,34.30
2018-08-28T11:32:15.465Z,33.60
2018-08-28T11:34:45.628Z,32.80
2018-08-28T11:37:14.437Z,32.40
2018-08-28T11:39:43.010Z,32.00
2018-08-28T11:42:11.539Z,31.90
2018-08-28T11:44:40.448Z,31.60
2018-08-28T11:47:09.102Z,31.10
2018-08-28T11:49:37.622Z,30.70
2018-08-28T11:52:06.195Z,30.60
2018-08-28T11:55:05.604Z,30.50
2018-08-28T11:57:34.272Z,30.80
2018-08-28T12:00:03.175Z,31.00
2018-08-28T12:02:31.741Z,31.00
2018-08-28T12:05:00.412Z,30.90
2018-08-28T12:07:29.041Z,30.90
2018-08-28T12:09:57.549Z,30.50
2018-08-28T12:12:26.118Z,30.40
2018-08-28T12:14:54.658Z,30.30
2018-08-28T12:17:23.219Z,30.40
2018-08-28T12:19:51.799Z,30.50
2018-08-28T12:22:20.369Z,30.60
2018-08-28T12:24:48.933Z,30.30
2018-08-28T12:27:17.505Z,30.20
2018-08-28T12:29:46.040Z,30.10
2018-08-28T12:32:14.572Z,30.00
2018-08-28T12:34:43.146Z,29.60
2018-08-28T12:37:11.747Z,29.00
2018-08-28T12:39:40.624Z,28.60
2018-08-28T12:42:09.198Z,28.70
2018-08-28T12:44:37.746Z,29.10
2018-08-28T12:47:06.419Z,29.50
2018-08-28T12:49:35.190Z,29.90
2018-08-28T12:52:03.787Z,29.90
2018-08-28T12:54:32.320Z,29.80
2018-08-28T12:57:00.824Z,29.70
2018-08-28T12:59:29.450Z,29.80
2018-08-28T13:01:58.047Z,30.00
2018-08-28T13:04:27.022Z,30.20
2018-08-28T13:06:56.750Z,30.40
2018-08-28T13:09:25.372Z,30.30
2018-08-28T13:11:53.892Z,30.10
2018-08-28T13:14:22.437Z,30.00
2018-08-28T13:16:50.918Z,30.00
2018-08-28T13:19:32.409Z,30.20
2018-08-28T13:22:05.162Z,30.70
2018-08-28T13:24:33.836Z,31.20
2018-08-28T13:27:04.311Z,31.70
2018-08-28T13:29:34.486Z,32.40
2018-08-28T13:32:07.019Z,32.80
2018-08-28T13:34:35.569Z,32.80
2018-08-28T13:37:04.145Z,32.90
2018-08-28T13:39:32.747Z,32.80
2018-08-28T13:42:01.335Z,32.80
2018-08-28T13:44:29.894Z,32.60
2018-08-28T13:46:58.491Z,32.30
2018-08-28T13:49:27.028Z,31.90
2018-08-28T13:51:55.663Z,31.20
2018-08-28T13:54:24.314Z,31.00
2018-08-28T13:56:52.768Z,30.90
2018-08-28T13:59:21.410Z,30.80
2018-08-28T14:01:49.929Z,30.80
2018-08-28T14:04:18.484Z,30.90
2018-08-28T14:06:47.100Z,30.90
2018-08-28T14:09:15.850Z,30.80
2018-08-28T14:11:44.992Z,30.60
2018-08-28T14:14:14.168Z,30.50
2018-08-28T14:16:42.764Z,30.30
2018-08-28T14:19:11.316Z,30.00
2018-08-28T14:21:39.855Z,29.90
2018-08-28T14:24:08.426Z,29.80
2018-08-28T14:26:37.122Z,29.70
2018-08-28T14:29:06.307Z,29.60
2018-08-28T14:31:34.761Z,29.20
2018-08-28T14:34:03.313Z,29.00
2018-08-28T14:36:31.874Z,29.00
2018-08-28T14:39:00.538Z,28.90
2018-08-28T14:41:29.182Z,28.90
2018-08-28T14:43:57.760Z,28.70
2018-08-28T14:46:26.338Z,28.80
2018-08-28T14:48:54.898Z,28.80
2018-08-28T14:51:23.411Z,29.00
2018-08-28T14:53:52.102Z,29.00
2018-08-28T14:56:20.674Z,28.70
2018-08-28T14:58:49.236Z,28.50
2018-08-28T15:01:17.831Z,28.40
2018-08-28T15:03:46.340Z,28.40
2018-08-28T15:06:14.877Z,28.30
2018-08-28T15:08:43.420Z,28.40
2018-08-28T15:11:11.946Z,28.30
2018-08-28T15:13:40.590Z,28.20
2018-08-28T15:16:09.098Z,28.00
2018-08-28T15:18:37.657Z,28.00
2018-08-28T15:21:06.580Z,28.00
2018-08-28T15:23:35.205Z,28.00
2018-08-28T15:26:03.775Z,27.80
2018-08-28T15:28:32.345Z,27.80
2018-08-28T15:31:00.975Z,27.80
2018-08-28T15:33:29.625Z,27.70
2018-08-28T15:35:58.183Z,27.80
2018-08-28T15:38:26.847Z,27.70
2018-08-28T15:40:55.622Z,27.70
2018-08-28T15:43:24.227Z,27.60
2018-08-28T15:45:52.742Z,27.50
2018-08-28T15:48:21.308Z,27.40
2018-08-28T15:51:04.720Z,27.30
2018-08-28T15:53:33.194Z,27.30
2018-08-28T15:56:01.707Z,27.20
2018-08-28T15:58:30.289Z,27.20
2018-08-28T16:00:58.904Z,27.10
2018-08-28T16:03:27.734Z,27.10
2018-08-28T16:05:56.258Z,27.10
2018-08-28T16:08:24.774Z,27.10
2018-08-28T16:10:53.345Z,27.10
2018-08-28T16:13:21.889Z,27.10
2018-08-28T16:15:50.486Z,27.10
2018-08-28T16:18:19.121Z,27.00
2018-08-28T16:20:50.617Z,27.00
2018-08-28T16:23:24.481Z,26.90
2018-08-28T16:25:53.051Z,26.80
2018-08-28T16:28:21.657Z,26.80
2018-08-28T16:30:50.207Z,26.70
2018-08-28T16:33:18.738Z,26.70
2018-08-28T16:35:47.342Z,26.70
2018-08-28T16:38:15.836Z,26.70
2018-08-28T16:40:44.432Z,26.60
2018-08-28T16:43:12.964Z,26.50
2018-08-28T16:45:42.109Z,26.50
2018-08-28T16:48:10.707Z,26.40
2018-08-28T16:50:39.270Z,26.30
2018-08-28T16:53:07.878Z,26.20
2018-08-28T16:55:36.481Z,26.10
2018-08-28T16:58:05.145Z,25.90
2018-08-28T17:00:33.671Z,25.90
2018-08-28T17:03:02.246Z,25.80
2018-08-28T17:05:30.870Z,25.70
2018-08-28T17:07:59.389Z,25.70
2018-08-28T17:10:28.006Z,25.60
2018-08-28T17:12:56.571Z,25.50
2018-08-28T17:15:25.124Z,25.40
2018-08-28T17:17:53.920Z,25.30
2018-08-28T17:20:22.474Z,25.20
2018-08-28T17:22:51.157Z,25.10
2018-08-28T17:25:19.730Z,25.10
2018-08-28T17:27:48.515Z,25.00
2018-08-28T17:30:17.350Z,24.90
2018-08-28T17:32:45.886Z,24.90
2018-08-28T17:35:14.447Z,24.80
2018-08-28T17:37:43.015Z,24.70
2018-08-28T17:40:11.616Z,24.60
2018-08-28T17:42:40.149Z,24.40
2018-08-28T17:45:08.728Z,24.30
2018-08-28T17:47:37.250Z,24.20
2018-08-28T17:50:06.909Z,24.10
2018-08-28T17:52:35.487Z,23.90
2018-08-28T17:55:04.098Z,23.80
2018-08-28T17:57:32.673Z,23.60
2018-08-28T18:00:01.206Z,23.40
2018-08-28T18:02:29.716Z,23.30
2018-08-28T18:04:58.355Z,23.20
2018-08-28T18:07:26.879Z,23.10
2018-08-28T18:09:55.490Z,22.90
2018-08-28T18:12:24.028Z,22.60
2018-08-28T18:14:52.552Z,22.50
2018-08-28T18:17:21.063Z,22.30
2018-08-28T18:19:49.600Z,22.20
2018-08-28T18:22:18.169Z,22.10
2018-08-28T18:27:29.696Z,21.90
2018-08-28T18:29:58.497Z,21.70
2018-08-28T18:32:27.217Z,21.70
2018-08-28T18:34:55.827Z,21.60
2018-08-28T18:37:24.547Z,21.50
2018-08-28T18:39:55.110Z,21.40
2018-08-28T18:42:23.669Z,21.30
2018-08-28T18:44:52.979Z,21.20
2018-08-28T18:47:21.547Z,21.10
2018-08-28T18:49:50.206Z,21.00
2018-08-28T18:52:18.756Z,20.90
2018-08-28T18:54:47.311Z,20.80
2018-08-28T18:57:15.831Z,20.80
2018-08-28T18:59:45.781Z,20.70
2018-08-28T19:02:14.328Z,20.50
2018-08-28T19:04:42.949Z,20.40
2018-08-28T19:07:11.498Z,20.30
2018-08-28T19:09:40.291Z,20.20
2018-08-28T19:12:08.867Z,20.10
2018-08-28T19:14:37.465Z,20.00
2018-08-28T19:17:06.002Z,19.90
2018-08-28T19:19:34.538Z,19.90
2018-08-28T19:22:03.045Z,19.80
2018-08-28T19:24:31.674Z,19.80
2018-08-28T19:27:00.253Z,19.70
2018-08-28T19:29:28.876Z,19.70
2018-08-28T19:31:57.395Z,19.70
2018-08-28T19:34:26.003Z,19.60
2018-08-28T19:36:54.560Z,19.50
2018-08-28T19:39:23.911Z,19.40
2018-08-28T19:41:53.107Z,19.40
2018-08-28T19:44:22.537Z,19.40
2018-08-28T19:46:51.178Z,19.30
2018-08-28T19:49:21.347Z,19.30
2018-08-28T19:51:50.370Z,19.20
2018-08-28T19:54:19.706Z,19.20
2018-08-28T19:56:48.273Z,19.10
2018-08-28T19:59:18.613Z,19.00
2018-08-28T20:01:48.854Z,19.00
2018-08-28T20:04:19.371Z,18.90
2018-08-28T20:06:48.128Z,18.80
2018-08-28T20:09:16.774Z,18.80
2018-08-28T20:11:45.957Z,18.70
2018-08-28T20:14:14.442Z,18.70
2018-08-28T20:16:43.956Z,18.60
2018-08-28T20:19:12.674Z,18.60
2018-08-28T20:21:41.811Z,18.60
2018-08-28T20:24:10.896Z,18.50
2018-08-28T20:26:40.768Z,18.40
2018-08-28T20:29:09.721Z,18.40
2018-08-28T20:31:38.673Z,18.30
2018-08-28T20:34:08.168Z,18.20
2018-08-28T20:36:36.733Z,18.10
2018-08-28T20:39:06.285Z,18.10
2018-08-28T20:41:35.525Z,18.10
2018-08-28T20:44:04.087Z,18.00
2018-08-28T20:46:32.683Z,18.00
2018-08-28T20:49:01.213Z,17.90
2018-08-28T20:51:30.601Z,17.80
2018-08-28T20:53:59.104Z,17.80
2018-08-28T20:56:27.840Z,17.70
2018-08-28T20:58:56.619Z,17.80
2018-08-28T21:01:25.483Z,17.70
2018-08-28T21:03:54.002Z,17.70
2018-08-28T21:06:22.657Z,17.70
2018-08-28T21:08:51.130Z,17.80
2018-08-28T21:11:19.672Z,17.80
2018-08-28T21:13:48.165Z,17.80
2018-08-28T21:16:16.688Z,17.80
2018-08-28T21:18:46.078Z,17.90
2018-08-28T21:21:15.084Z,17.90
2018-08-28T21:24:46.784Z,18.00
2018-08-28T21:27:15.394Z,18.00
2018-08-28T21:29:44.321Z,18.10
2018-08-28T21:32:12.851Z,18.00
2018-08-28T21:34:41.384Z,17.90
2018-08-28T21:37:10.302Z,17.80
2018-08-28T21:39:39.230Z,17.70
2018-08-28T21:42:07.871Z,17.70
2018-08-28T21:44:36.541Z,17.60
2018-08-28T21:47:05.992Z,17.60
2018-08-28T21:49:34.593Z,17.60
2018-08-28T21:52:03.100Z,17.60
2018-08-28T21:54:32.030Z,17.50
2018-08-28T21:57:00.967Z,17.50
2018-08-28T21:59:29.565Z,17.40
2018-08-28T22:01:58.509Z,17.40
2018-08-28T22:04:27.087Z,17.40
2018-08-28T22:07:00.867Z,17.40
2018-08-28T22:09:29.381Z,17.30
2018-08-28T22:11:57.957Z,17.30
2018-08-28T22:14:26.693Z,17.20
2018-08-28T22:16:55.260Z,17.20
2018-08-28T22:19:23.818Z,17.10
2018-08-28T22:21:52.410Z,17.10
2018-08-28T22:24:20.942Z,17.00
2018-08-28T22:26:49.437Z,17.00
2018-08-28T22:29:18.178Z,16.90
2018-08-28T22:31:46.724Z,16.90
2018-08-28T22:34:15.284Z,16.80
2018-08-28T22:36:43.859Z,16.80
2018-08-28T22:39:12.364Z,16.80
2018-08-28T22:41:40.990Z,16.70
2018-08-28T22:44:09.529Z,16.70
2018-08-28T22:46:38.106Z,16.60
2018-08-28T22:49:06.958Z,16.60
2018-08-28T22:51:35.561Z,16.60
2018-08-28T22:54:04.191Z,16.50
2018-08-28T22:56:32.703Z,16.50
2018-08-28T22:59:01.295Z,16.50
2018-08-28T23:01:29.859Z,16.40
2018-08-28T23:03:58.382Z,16.40
2018-08-28T23:06:26.920Z,16.40
2018-08-28T23:08:55.511Z,16.40
2018-08-28T23:11:24.038Z,16.40
2018-08-28T23:13:52.550Z,16.30
2018-08-28T23:16:21.111Z,16.30
2018-08-28T23:18:49.696Z,16.30
2018-08-28T23:21:18.255Z,16.20
2018-08-28T23:23:46.809Z,16.20
2018-08-28T23:26:15.353Z,16.20
2018-08-28T23:28:43.913Z,16.20
2018-08-28T23:31:12.485Z,16.10
2018-08-28T23:33:41.034Z,16.10
2018-08-28T23:36:09.610Z,16.10
2018-08-28T23:38:38.106Z,16.10
2018-08-28T23:41:06.728Z,16.10
2018-08-28T23:43:35.325Z,16.00
2018-08-28T23:46:03.877Z,16.00
2018-08-28T23:48:32.413Z,16.00
2018-08-28T23:51:01.062Z,16.00
2018-08-28T23:53:29.585Z,16.00
2018-08-28T23:55:58.128Z,15.90
2018-08-28T23:58:27.333Z,15.90
